sensor_id;sensor_type;location;lat;lon;timestamp;pressure;altitude;pressure_sealevel;temperature
15680;BMP180;15488;48.114;11.532;2023-03-04T00:00:54;95646.00;;;10.60
15680;BMP180;15488;48.114;11.532;2023-03-04T00:03:22;95645.00;;;10.60
15680;BMP180;15488;48.114;11.532;2023-03-04T00:05:49;95643.00;;;10.50
15680;BMP180;15488;48.114;11.532;2023-03-04T00:08:17;95650.00;;;10.50
15680;BMP180;15488;48.114;11.532;2023-03-04T00:10:46;95647.00;;;10.50
15680;BMP180;15488;48.114;11.532;2023-03-04T00:13:13;95648.00;;;10.50
15680;BMP180;15488;48.114;11.532;2023-03-04T00:15:43;95646.00;;;10.50
15680;BMP180;15488;48.114;11.532;2023-03-04T00:18:13;95652.00;;;10.40
15680;BMP180;15488;48.114;11.532;2023-03-04T00:20:41;95648.00;;;10.40
15680;BMP180;15488;48.114;11.532;2023-03-04T00:23:11;95649.00;;;10.40
15680;BMP180;15488;48.114;11.532;2023-03-04T00:25:38;95658.00;;;10.30
15680;BMP180;15488;48.114;11.532;2023-03-04T00:28:07;95651.00;;;10.30
15680;BMP180;15488;48.114;11.532;2023-03-04T00:30:35;95654.00;;;10.30
15680;BMP180;15488;48.114;11.532;2023-03-04T00:33:02;95657.00;;;10.30
15680;BMP180;15488;48.114;11.532;2023-03-04T00:35:29;95651.00;;;10.30
15680;BMP180;15488;48.114;11.532;2023-03-04T00:37:57;95652.00;;;10.30
15680;BMP180;15488;48.114;11.532;2023-03-04T00:40:24;95655.00;;;10.30
15680;BMP180;15488;48.114;11.532;2023-03-04T00:42:52;95653.00;;;10.30
15680;BMP180;15488;48.114;11.532;2023-03-04T00:45:20;95659.00;;;10.30
15680;BMP180;15488;48.114;11.532;2023-03-04T00:47:48;95668.00;;;10.30
15680;BMP180;15488;48.114;11.532;2023-03-04T00:50:16;95660.00;;;10.30
15680;BMP180;15488;48.114;11.532;2023-03-04T00:52:43;95653.00;;;10.30
15680;BMP180;15488;48.114;11.532;2023-03-04T00:55:10;95663.00;;;10.30
15680;BMP180;15488;48.114;11.532;2023-03-04T00:57:38;95654.00;;;10.30
15680;BMP180;15488;48.114;11.532;2023-03-04T01:00:06;95656.00;;;10.20
15680;BMP180;15488;48.114;11.532;2023-03-04T01:02:36;95644.00;;;10.20
15680;BMP180;15488;48.114;11.532;2023-03-04T01:05:04;95644.00;;;10.20
15680;BMP180;15488;48.114;11.532;2023-03-04T01:07:32;95643.00;;;10.20
15680;BMP180;15488;48.114;11.532;2023-03-04T01:09:59;95638.00;;;10.20
15680;BMP180;15488;48.114;11.532;2023-03-04T01:12:27;95639.00;;;10.10
15680;BMP180;15488;48.114;11.532;2023-03-04T01:14:55;95636.00;;;10.10
15680;BMP180;15488;48.114;11.532;2023-03-04T01:17:22;95638.00;;;10.10
15680;BMP180;15488;48.114;11.532;2023-03-04T01:19:51;95628.00;;;10.10
15680;BMP180;15488;48.114;11.532;2023-03-04T01:22:19;95628.00;;;10.10
15680;BMP180;15488;48.114;11.532;2023-03-04T01:24:46;95636.00;;;10.00
15680;BMP180;15488;48.114;11.532;2023-03-04T01:27:13;95636.00;;;10.00
15680;BMP180;15488;48.114;11.532;2023-03-04T01:29:41;95635.00;;;10.00
15680;BMP180;15488;48.114;11.532;2023-03-04T01:32:08;95631.00;;;10.00
15680;BMP180;15488;48.114;11.532;2023-03-04T01:34:36;95628.00;;;10.00
15680;BMP180;15488;48.114;11.532;2023-03-04T01:37:05;95627.00;;;10.00
15680;BMP180;15488;48.114;11.532;2023-03-04T01:39:32;95625.00;;;10.00
15680;BMP180;15488;48.114;11.532;2023-03-04T01:42:00;95615.00;;;10.00
15680;BMP180;15488;48.114;11.532;2023-03-04T01:44:27;95618.00;;;10.00
15680;BMP180;15488;48.114;11.532;2023-03-04T01:46:55;95617.00;;;10.00
15680;BMP180;15488;48.114;11.532;2023-03-04T01:49:23;95611.00;;;10.00
15680;BMP180;15488;48.114;11.532;2023-03-04T01:51:52;95613.00;;;10.00
15680;BMP180;15488;48.114;11.532;2023-03-04T01:54:22;95608.00;;;10.00
15680;BMP180;15488;48.114;11.532;2023-03-04T01:56:51;95607.00;;;10.00
15680;BMP180;15488;48.114;11.532;2023-03-04T01:59:20;95606.00;;;10.00
15680;BMP180;15488;48.114;11.532;2023-03-04T02:01:49;95606.00;;;10.00
15680;BMP180;15488;48.114;11.532;2023-03-04T02:04:18;95598.00;;;10.00
15680;BMP180;15488;48.114;11.532;2023-03-04T02:06:47;95595.00;;;10.00
15680;BMP180;15488;48.114;11.532;2023-03-04T02:09:16;95591.00;;;10.00
15680;BMP180;15488;48.114;11.532;2023-03-04T02:11:46;95592.00;;;10.00
15680;BMP180;15488;48.114;11.532;2023-03-04T02:14:15;95587.00;;;10.00
15680;BMP180;15488;48.114;11.532;2023-03-04T02:16:43;95585.00;;;10.00
15680;BMP180;15488;48.114;11.532;2023-03-04T02:19:15;95581.00;;;10.00
15680;BMP180;15488;48.114;11.532;2023-03-04T02:21:44;95578.00;;;10.00
15680;BMP180;15488;48.114;11.532;2023-03-04T02:24:16;95578.00;;;9.90
15680;BMP180;15488;48.114;11.532;2023-03-04T02:26:47;95578.00;;;9.90
15680;BMP180;15488;48.114;11.532;2023-03-04T02:29:16;95570.00;;;9.90
15680;BMP180;15488;48.114;11.532;2023-03-04T02:31:45;95574.00;;;9.90
15680;BMP180;15488;48.114;11.532;2023-03-04T02:34:14;95574.00;;;9.90
15680;BMP180;15488;48.114;11.532;2023-03-04T02:36:43;95575.00;;;9.90
15680;BMP180;15488;48.114;11.532;2023-03-04T02:39:13;95575.00;;;9.90
15680;BMP180;15488;48.114;11.532;2023-03-04T02:41:41;95569.00;;;9.90
15680;BMP180;15488;48.114;11.532;2023-03-04T02:44:15;95572.00;;;9.90
15680;BMP180;15488;48.114;11.532;2023-03-04T02:46:43;95576.00;;;9.90
15680;BMP180;15488;48.114;11.532;2023-03-04T02:49:11;95583.00;;;9.90
15680;BMP180;15488;48.114;11.532;2023-03-04T02:51:38;95578.00;;;9.90
15680;BMP180;15488;48.114;11.532;2023-03-04T02:54:14;95578.00;;;9.90
15680;BMP180;15488;48.114;11.532;2023-03-04T02:56:44;95573.00;;;9.90
15680;BMP180;15488;48.114;11.532;2023-03-04T02:59:14;95572.00;;;9.80
15680;BMP180;15488;48.114;11.532;2023-03-04T03:01:41;95573.00;;;9.80
15680;BMP180;15488;48.114;11.532;2023-03-04T03:04:09;95571.00;;;9.80
15680;BMP180;15488;48.114;11.532;2023-03-04T03:06:37;95573.00;;;9.80
15680;BMP180;15488;48.114;11.532;2023-03-04T03:09:05;95570.00;;;9.80
15680;BMP180;15488;48.114;11.532;2023-03-04T03:11:33;95565.00;;;9.80
15680;BMP180;15488;48.114;11.532;2023-03-04T03:14:01;95580.00;;;9.80
15680;BMP180;15488;48.114;11.532;2023-03-04T03:16:29;95577.00;;;9.70
15680;BMP180;15488;48.114;11.532;2023-03-04T03:18:57;95581.00;;;9.70
15680;BMP180;15488;48.114;11.532;2023-03-04T03:21:25;95574.00;;;9.70
15680;BMP180;15488;48.114;11.532;2023-03-04T03:23:52;95585.00;;;9.70
15680;BMP180;15488;48.114;11.532;2023-03-04T03:26:20;95589.00;;;9.70
15680;BMP180;15488;48.114;11.532;2023-03-04T03:28:47;95581.00;;;9.70
15680;BMP180;15488;48.114;11.532;2023-03-04T03:31:15;95585.00;;;9.70
15680;BMP180;15488;48.114;11.532;2023-03-04T03:33:44;95583.00;;;9.70
15680;BMP180;15488;48.114;11.532;2023-03-04T03:36:11;95584.00;;;9.70
15680;BMP180;15488;48.114;11.532;2023-03-04T03:38:39;95583.00;;;9.70
15680;BMP180;15488;48.114;11.532;2023-03-04T03:41:06;95587.00;;;9.70
15680;BMP180;15488;48.114;11.532;2023-03-04T03:43:33;95587.00;;;9.70
15680;BMP180;15488;48.114;11.532;2023-03-04T03:46:01;95575.00;;;9.70
15680;BMP180;15488;48.114;11.532;2023-03-04T03:48:28;95579.00;;;9.70
15680;BMP180;15488;48.114;11.532;2023-03-04T03:50:57;95584.00;;;9.70
15680;BMP180;15488;48.114;11.532;2023-03-04T03:53:24;95582.00;;;9.70
15680;BMP180;15488;48.114;11.532;2023-03-04T03:55:52;95581.00;;;9.70
15680;BMP180;15488;48.114;11.532;2023-03-04T03:58:19;95581.00;;;9.70
15680;BMP180;15488;48.114;11.532;2023-03-04T04:00:48;95573.00;;;9.70
15680;BMP180;15488;48.114;11.532;2023-03-04T04:03:15;95579.00;;;9.70
15680;BMP180;15488;48.114;11.532;2023-03-04T04:05:43;95576.00;;;9.70
15680;BMP180;15488;48.114;11.532;2023-03-04T04:08:13;95574.00;;;9.70
15680;BMP180;15488;48.114;11.532;2023-03-04T04:10:41;95575.00;;;9.70
15680;BMP180;15488;48.114;11.532;2023-03-04T04:13:09;95571.00;;;9.60
15680;BMP180;15488;48.114;11.532;2023-03-04T04:15:38;95578.00;;;9.60
15680;BMP180;15488;48.114;11.532;2023-03-04T04:18:07;95570.00;;;9.60
15680;BMP180;15488;48.114;11.532;2023-03-04T04:20:35;95574.00;;;9.60
15680;BMP180;15488;48.114;11.532;2023-03-04T04:23:03;95570.00;;;9.60
15680;BMP180;15488;48.114;11.532;2023-03-04T04:25:32;95574.00;;;9.60
15680;BMP180;15488;48.114;11.532;2023-03-04T04:27:59;95572.00;;;9.60
15680;BMP180;15488;48.114;11.532;2023-03-04T04:30:26;95580.00;;;9.50
15680;BMP180;15488;48.114;11.532;2023-03-04T04:32:54;95578.00;;;9.50
15680;BMP180;15488;48.114;11.532;2023-03-04T04:35:21;95576.00;;;9.50
15680;BMP180;15488;48.114;11.532;2023-03-04T04:37:49;95574.00;;;9.50
15680;BMP180;15488;48.114;11.532;2023-03-04T04:40:16;95582.00;;;9.50
15680;BMP180;15488;48.114;11.532;2023-03-04T04:42:45;95574.00;;;9.40
15680;BMP180;15488;48.114;11.532;2023-03-04T04:45:13;95570.00;;;9.40
15680;BMP180;15488;48.114;11.532;2023-03-04T04:47:40;95571.00;;;9.40
15680;BMP180;15488;48.114;11.532;2023-03-04T04:50:08;95572.00;;;9.40
15680;BMP180;15488;48.114;11.532;2023-03-04T04:52:36;95574.00;;;9.40
15680;BMP180;15488;48.114;11.532;2023-03-04T04:55:04;95574.00;;;9.40
15680;BMP180;15488;48.114;11.532;2023-03-04T04:57:33;95575.00;;;9.30
15680;BMP180;15488;48.114;11.532;2023-03-04T05:00:02;95572.00;;;9.30
15680;BMP180;15488;48.114;11.532;2023-03-04T05:02:29;95576.00;;;9.30
15680;BMP180;15488;48.114;11.532;2023-03-04T05:05:01;95573.00;;;9.30
15680;BMP180;15488;48.114;11.532;2023-03-04T05:07:28;95575.00;;;9.30
15680;BMP180;15488;48.114;11.532;2023-03-04T05:09:56;95577.00;;;9.30
15680;BMP180;15488;48.114;11.532;2023-03-04T05:12:23;95576.00;;;9.30
15680;BMP180;15488;48.114;11.532;2023-03-04T05:14:51;95581.00;;;9.30
15680;BMP180;15488;48.114;11.532;2023-03-04T05:17:20;95576.00;;;9.30
15680;BMP180;15488;48.114;11.532;2023-03-04T05:19:49;95578.00;;;9.20
15680;BMP180;15488;48.114;11.532;2023-03-04T05:22:16;95577.00;;;9.20
15680;BMP180;15488;48.114;11.532;2023-03-04T05:24:44;95576.00;;;9.20
15680;BMP180;15488;48.114;11.532;2023-03-04T05:27:11;95577.00;;;9.20
15680;BMP180;15488;48.114;11.532;2023-03-04T05:29:38;95510.00;;;9.20
15680;BMP180;15488;48.114;11.532;2023-03-04T05:32:07;95583.00;;;9.20
15680;BMP180;15488;48.114;11.532;2023-03-04T05:34:36;95583.00;;;9.10
15680;BMP180;15488;48.114;11.532;2023-03-04T05:37:03;95579.00;;;9.10
15680;BMP180;15488;48.114;11.532;2023-03-04T05:39:31;95579.00;;;9.10
15680;BMP180;15488;48.114;11.532;2023-03-04T05:41:59;95584.00;;;9.10
15680;BMP180;15488;48.114;11.532;2023-03-04T05:44:26;95582.00;;;9.10
15680;BMP180;15488;48.114;11.532;2023-03-04T05:46:53;95579.00;;;9.10
15680;BMP180;15488;48.114;11.532;2023-03-04T05:49:21;95581.00;;;9.10
15680;BMP180;15488;48.114;11.532;2023-03-04T05:51:50;95586.00;;;9.10
15680;BMP180;15488;48.114;11.532;2023-03-04T05:54:17;95584.00;;;9.10
15680;BMP180;15488;48.114;11.532;2023-03-04T05:56:45;95586.00;;;9.10
15680;BMP180;15488;48.114;11.532;2023-03-04T05:59:12;95584.00;;;9.10
15680;BMP180;15488;48.114;11.532;2023-03-04T06:01:45;95590.00;;;9.10
15680;BMP180;15488;48.114;11.532;2023-03-04T06:04:12;95590.00;;;9.10
15680;BMP180;15488;48.114;11.532;2023-03-04T06:06:40;95596.00;;;9.00
15680;BMP180;15488;48.114;11.532;2023-03-04T06:09:09;95596.00;;;9.00
15680;BMP180;15488;48.114;11.532;2023-03-04T06:11:36;95596.00;;;9.00
15680;BMP180;15488;48.114;11.532;2023-03-04T06:14:04;95597.00;;;9.00
15680;BMP180;15488;48.114;11.532;2023-03-04T06:16:31;95601.00;;;9.00
15680;BMP180;15488;48.114;11.532;2023-03-04T06:18:59;95596.00;;;9.00
15680;BMP180;15488;48.114;11.532;2023-03-04T06:21:26;95606.00;;;9.10
15680;BMP180;15488;48.114;11.532;2023-03-04T06:23:54;95612.00;;;9.10
15680;BMP180;15488;48.114;11.532;2023-03-04T06:26:23;95611.00;;;8.60
15680;BMP180;15488;48.114;11.532;2023-03-04T06:28:50;95605.00;;;9.00
15680;BMP180;15488;48.114;11.532;2023-03-04T06:31:21;95614.00;;;9.00
15680;BMP180;15488;48.114;11.532;2023-03-04T06:33:49;95613.00;;;9.00
15680;BMP180;15488;48.114;11.532;2023-03-04T06:36:17;95613.00;;;9.00
15680;BMP180;15488;48.114;11.532;2023-03-04T06:38:44;95624.00;;;9.00
15680;BMP180;15488;48.114;11.532;2023-03-04T06:41:12;95621.00;;;9.10
15680;BMP180;15488;48.114;11.532;2023-03-04T06:43:41;95618.00;;;9.00
15680;BMP180;15488;48.114;11.532;2023-03-04T06:46:09;95619.00;;;9.10
15680;BMP180;15488;48.114;11.532;2023-03-04T06:48:37;95620.00;;;9.10
15680;BMP180;15488;48.114;11.532;2023-03-04T06:51:05;95621.00;;;9.10
15680;BMP180;15488;48.114;11.532;2023-03-04T06:53:33;95620.00;;;9.10
15680;BMP180;15488;48.114;11.532;2023-03-04T06:56:00;95620.00;;;9.10
15680;BMP180;15488;48.114;11.532;2023-03-04T06:58:28;95619.00;;;9.10
15680;BMP180;15488;48.114;11.532;2023-03-04T07:00:57;95622.00;;;9.10
15680;BMP180;15488;48.114;11.532;2023-03-04T07:03:35;95628.00;;;9.10
15680;BMP180;15488;48.114;11.532;2023-03-04T07:06:02;95632.00;;;9.10
15680;BMP180;15488;48.114;11.532;2023-03-04T07:08:30;95631.00;;;9.10
15680;BMP180;15488;48.114;11.532;2023-03-04T07:10:57;95632.00;;;9.20
15680;BMP180;15488;48.114;11.532;2023-03-04T07:13:24;95638.00;;;9.20
15680;BMP180;15488;48.114;11.532;2023-03-04T07:15:52;95559.00;;;9.20
15680;BMP180;15488;48.114;11.532;2023-03-04T07:18:21;95634.00;;;9.30
15680;BMP180;15488;48.114;11.532;2023-03-04T07:20:51;95636.00;;;9.30
15680;BMP180;15488;48.114;11.532;2023-03-04T07:23:19;95637.00;;;9.30
15680;BMP180;15488;48.114;11.532;2023-03-04T07:25:48;95631.00;;;9.30
15680;BMP180;15488;48.114;11.532;2023-03-04T07:28:16;95637.00;;;9.30
15680;BMP180;15488;48.114;11.532;2023-03-04T07:30:44;95640.00;;;9.40
15680;BMP180;15488;48.114;11.532;2023-03-04T07:33:12;95644.00;;;9.40
15680;BMP180;15488;48.114;11.532;2023-03-04T07:35:41;95645.00;;;9.50
15680;BMP180;15488;48.114;11.532;2023-03-04T07:38:09;95651.00;;;9.50
15680;BMP180;15488;48.114;11.532;2023-03-04T07:40:36;95653.00;;;9.50
15680;BMP180;15488;48.114;11.532;2023-03-04T07:43:04;95651.00;;;9.60
15680;BMP180;15488;48.114;11.532;2023-03-04T07:45:32;95647.00;;;9.60
15680;BMP180;15488;48.114;11.532;2023-03-04T07:47:59;95655.00;;;9.60
15680;BMP180;15488;48.114;11.532;2023-03-04T07:50:27;95655.00;;;9.70
15680;BMP180;15488;48.114;11.532;2023-03-04T07:52:55;95660.00;;;9.70
15680;BMP180;15488;48.114;11.532;2023-03-04T07:55:23;95661.00;;;9.80
15680;BMP180;15488;48.114;11.532;2023-03-04T07:57:50;95660.00;;;9.80
15680;BMP180;15488;48.114;11.532;2023-03-04T08:00:19;95668.00;;;9.90
15680;BMP180;15488;48.114;11.532;2023-03-04T08:02:46;95676.00;;;9.90
15680;BMP180;15488;48.114;11.532;2023-03-04T08:05:13;95678.00;;;10.00
15680;BMP180;15488;48.114;11.532;2023-03-04T08:07:41;95678.00;;;10.00
15680;BMP180;15488;48.114;11.532;2023-03-04T08:10:11;95676.00;;;10.00
15680;BMP180;15488;48.114;11.532;2023-03-04T08:12:38;95679.00;;;10.00
15680;BMP180;15488;48.114;11.532;2023-03-04T08:15:07;95682.00;;;10.10
15680;BMP180;15488;48.114;11.532;2023-03-04T08:17:35;95679.00;;;10.10
15680;BMP180;15488;48.114;11.532;2023-03-04T08:20:02;95678.00;;;10.20
15680;BMP180;15488;48.114;11.532;2023-03-04T08:22:32;95676.00;;;10.20
15680;BMP180;15488;48.114;11.532;2023-03-04T08:25:00;95681.00;;;10.30
15680;BMP180;15488;48.114;11.532;2023-03-04T08:27:29;95694.00;;;10.20
15680;BMP180;15488;48.114;11.532;2023-03-04T08:29:56;95685.00;;;10.20
15680;BMP180;15488;48.114;11.532;2023-03-04T08:32:24;95677.00;;;10.30
15680;BMP180;15488;48.114;11.532;2023-03-04T08:34:51;95670.00;;;10.30
15680;BMP180;15488;48.114;11.532;2023-03-04T08:37:21;95673.00;;;10.30
15680;BMP180;15488;48.114;11.532;2023-03-04T08:39:51;95678.00;;;10.30
15680;BMP180;15488;48.114;11.532;2023-03-04T08:42:19;95673.00;;;10.30
15680;BMP180;15488;48.114;11.532;2023-03-04T08:44:47;95679.00;;;10.30
15680;BMP180;15488;48.114;11.532;2023-03-04T08:47:15;95682.00;;;10.40
15680;BMP180;15488;48.114;11.532;2023-03-04T08:49:42;95678.00;;;10.40
15680;BMP180;15488;48.114;11.532;2023-03-04T08:52:10;95670.00;;;10.40
15680;BMP180;15488;48.114;11.532;2023-03-04T08:54:37;95680.00;;;10.40
15680;BMP180;15488;48.114;11.532;2023-03-04T08:57:05;95673.00;;;10.40
15680;BMP180;15488;48.114;11.532;2023-03-04T08:59:32;95677.00;;;10.50
15680;BMP180;15488;48.114;11.532;2023-03-04T09:02:01;95679.00;;;10.50
15680;BMP180;15488;48.114;11.532;2023-03-04T09:04:29;95678.00;;;10.60
15680;BMP180;15488;48.114;11.532;2023-03-04T09:06:56;95688.00;;;10.60
15680;BMP180;15488;48.114;11.532;2023-03-04T09:09:24;95687.00;;;10.70
15680;BMP180;15488;48.114;11.532;2023-03-04T09:11:51;95670.00;;;10.70
15680;BMP180;15488;48.114;11.532;2023-03-04T09:14:19;95674.00;;;10.70
15680;BMP180;15488;48.114;11.532;2023-03-04T09:16:46;95669.00;;;10.80
15680;BMP180;15488;48.114;11.532;2023-03-04T09:19:15;95675.00;;;10.80
15680;BMP180;15488;48.114;11.532;2023-03-04T09:21:42;95665.00;;;10.90
15680;BMP180;15488;48.114;11.532;2023-03-04T09:24:10;95663.00;;;10.90
15680;BMP180;15488;48.114;11.532;2023-03-04T09:26:37;95660.00;;;11.00
15680;BMP180;15488;48.114;11.532;2023-03-04T09:29:05;95652.00;;;11.00
15680;BMP180;15488;48.114;11.532;2023-03-04T09:31:32;95651.00;;;11.10
15680;BMP180;15488;48.114;11.532;2023-03-04T09:34:00;95648.00;;;11.10
15680;BMP180;15488;48.114;11.532;2023-03-04T09:36:28;95657.00;;;11.20
15680;BMP180;15488;48.114;11.532;2023-03-04T09:38:58;95654.00;;;11.20
15680;BMP180;15488;48.114;11.532;2023-03-04T09:41:29;95666.00;;;11.20
15680;BMP180;15488;48.114;11.532;2023-03-04T09:44:00;95661.00;;;11.20
15680;BMP180;15488;48.114;11.532;2023-03-04T09:46:33;95665.00;;;11.20
15680;BMP180;15488;48.114;11.532;2023-03-04T09:49:02;95662.00;;;11.30
15680;BMP180;15488;48.114;11.532;2023-03-04T09:51:43;95665.00;;;11.40
15680;BMP180;15488;48.114;11.532;2023-03-04T09:54:17;95666.00;;;11.50
15680;BMP180;15488;48.114;11.532;2023-03-04T09:56:49;95664.00;;;11.50
15680;BMP180;15488;48.114;11.532;2023-03-04T09:59:24;95664.00;;;11.60
15680;BMP180;15488;48.114;11.532;2023-03-04T10:01:57;95659.00;;;11.70
15680;BMP180;15488;48.114;11.532;2023-03-04T10:04:31;95659.00;;;11.70
15680;BMP180;15488;48.114;11.532;2023-03-04T10:07:02;95653.00;;;11.80
15680;BMP180;15488;48.114;11.532;2023-03-04T10:09:42;95649.00;;;11.80
15680;BMP180;15488;48.114;11.532;2023-03-04T10:12:13;95646.00;;;11.90
15680;BMP180;15488;48.114;11.532;2023-03-04T10:14:46;95634.00;;;11.90
15680;BMP180;15488;48.114;11.532;2023-03-04T10:17:20;95643.00;;;12.00
15680;BMP180;15488;48.114;11.532;2023-03-04T10:19:56;95634.00;;;12.10
15680;BMP180;15488;48.114;11.532;2023-03-04T10:22:31;95635.00;;;12.20
15680;BMP180;15488;48.114;11.532;2023-03-04T10:25:06;95635.00;;;12.20
15680;BMP180;15488;48.114;11.532;2023-03-04T10:27:37;95627.00;;;12.30
15680;BMP180;15488;48.114;11.532;2023-03-04T10:30:15;95633.00;;;12.40
15680;BMP180;15488;48.114;11.532;2023-03-04T10:32:45;95632.00;;;12.50
15680;BMP180;15488;48.114;11.532;2023-03-04T10:35:14;95633.00;;;12.50
15680;BMP180;15488;48.114;11.532;2023-03-04T10:37:49;95632.00;;;12.60
15680;BMP180;15488;48.114;11.532;2023-03-04T10:40:21;95632.00;;;12.60
15680;BMP180;15488;48.114;11.532;2023-03-04T10:42:50;95626.00;;;12.70
15680;BMP180;15488;48.114;11.532;2023-03-04T10:45:24;95620.00;;;12.80
15680;BMP180;15488;48.114;11.532;2023-03-04T10:47:56;95624.00;;;12.90
15680;BMP180;15488;48.114;11.532;2023-03-04T10:50:26;95624.00;;;12.90
15680;BMP180;15488;48.114;11.532;2023-03-04T10:52:56;95615.00;;;13.00
15680;BMP180;15488;48.114;11.532;2023-03-04T10:55:26;95617.00;;;13.10
15680;BMP180;15488;48.114;11.532;2023-03-04T10:57:55;95609.00;;;13.20
15680;BMP180;15488;48.114;11.532;2023-03-04T11:00:26;95612.00;;;13.30
15680;BMP180;15488;48.114;11.532;2023-03-04T11:03:28;95611.00;;;13.40
15680;BMP180;15488;48.114;11.532;2023-03-04T11:06:11;95606.00;;;13.40
15680;BMP180;15488;48.114;11.532;2023-03-04T11:08:41;95606.00;;;13.50
15680;BMP180;15488;48.114;11.532;2023-03-04T11:11:27;95610.00;;;13.60
15680;BMP180;15488;48.114;11.532;2023-03-04T11:14:02;95606.00;;;13.70
15680;BMP180;15488;48.114;11.532;2023-03-04T11:16:31;95618.00;;;13.70
15680;BMP180;15488;48.114;11.532;2023-03-04T11:19:04;95604.00;;;13.80
15680;BMP180;15488;48.114;11.532;2023-03-04T11:21:36;95606.00;;;13.80
15680;BMP180;15488;48.114;11.532;2023-03-04T11:24:10;95605.00;;;13.90
15680;BMP180;15488;48.114;11.532;2023-03-04T11:26:41;95608.00;;;14.00
15680;BMP180;15488;48.114;11.532;2023-03-04T11:29:15;95605.00;;;14.00
15680;BMP180;15488;48.114;11.532;2023-03-04T11:31:48;95605.00;;;14.10
15680;BMP180;15488;48.114;11.532;2023-03-04T11:34:26;95605.00;;;14.20
15680;BMP180;15488;48.114;11.532;2023-03-04T11:37:00;95597.00;;;14.30
15680;BMP180;15488;48.114;11.532;2023-03-04T11:39:34;95595.00;;;14.40
15680;BMP180;15488;48.114;11.532;2023-03-04T11:42:09;95598.00;;;14.50
15680;BMP180;15488;48.114;11.532;2023-03-04T11:44:39;95597.00;;;14.60
15680;BMP180;15488;48.114;11.532;2023-03-04T11:47:19;95601.00;;;14.80
15680;BMP180;15488;48.114;11.532;2023-03-04T11:50:25;95596.00;;;14.90
15680;BMP180;15488;48.114;11.532;2023-03-04T11:53:25;95598.00;;;15.00
15680;BMP180;15488;48.114;11.532;2023-03-04T11:56:19;95587.00;;;15.00
15680;BMP180;15488;48.114;11.532;2023-03-04T11:59:17;95578.00;;;15.20
15680;BMP180;15488;48.114;11.532;2023-03-04T12:01:55;95588.00;;;15.20
15680;BMP180;15488;48.114;11.532;2023-03-04T12:04:39;95587.00;;;15.30
15680;BMP180;15488;48.114;11.532;2023-03-04T12:07:21;95579.00;;;15.40
15680;BMP180;15488;48.114;11.532;2023-03-04T12:10:01;95572.00;;;15.50
15680;BMP180;15488;48.114;11.532;2023-03-04T12:12:45;95579.00;;;15.60
15680;BMP180;15488;48.114;11.532;2023-03-04T12:15:19;95572.00;;;15.70
15680;BMP180;15488;48.114;11.532;2023-03-04T12:20:52;95565.00;;;15.90
15680;BMP180;15488;48.114;11.532;2023-03-04T12:23:38;95565.00;;;16.00
15680;BMP180;15488;48.114;11.532;2023-03-04T12:26:22;95562.00;;;16.10
15680;BMP180;15488;48.114;11.532;2023-03-04T12:28:58;95556.00;;;16.20
15680;BMP180;15488;48.114;11.532;2023-03-04T12:31:34;95549.00;;;16.30
15680;BMP180;15488;48.114;11.532;2023-03-04T12:34:37;95548.00;;;16.40
15680;BMP180;15488;48.114;11.532;2023-03-04T12:37:30;95541.00;;;16.50
15680;BMP180;15488;48.114;11.532;2023-03-04T12:43:10;95542.00;;;16.90
15680;BMP180;15488;48.114;11.532;2023-03-04T12:45:48;95532.00;;;17.10
15680;BMP180;15488;48.114;11.532;2023-03-04T12:48:29;95529.00;;;17.40
15680;BMP180;15488;48.114;11.532;2023-03-04T12:51:11;95525.00;;;17.70
15680;BMP180;15488;48.114;11.532;2023-03-04T12:53:47;95525.00;;;18.00
15680;BMP180;15488;48.114;11.532;2023-03-04T12:56:24;95524.00;;;18.40
15680;BMP180;15488;48.114;11.532;2023-03-04T12:58:53;95510.00;;;18.80
15680;BMP180;15488;48.114;11.532;2023-03-04T13:01:23;95524.00;;;19.10
15680;BMP180;15488;48.114;11.532;2023-03-04T13:03:56;95511.00;;;19.50
15680;BMP180;15488;48.114;11.532;2023-03-04T13:06:32;95514.00;;;19.90
15680;BMP180;15488;48.114;11.532;2023-03-04T13:09:06;95504.00;;;20.40
15680;BMP180;15488;48.114;11.532;2023-03-04T13:12:02;95519.00;;;20.90
15680;BMP180;15488;48.114;11.532;2023-03-04T13:14:33;95498.00;;;21.20
15680;BMP180;15488;48.114;11.532;2023-03-04T13:19:51;95497.00;;;21.80
15680;BMP180;15488;48.114;11.532;2023-03-04T13:22:43;95494.00;;;22.20
15680;BMP180;15488;48.114;11.532;2023-03-04T13:25:31;95499.00;;;22.40
15680;BMP180;15488;48.114;11.532;2023-03-04T13:28:26;95509.00;;;22.60
15680;BMP180;15488;48.114;11.532;2023-03-04T13:31:12;95506.00;;;22.90
15680;BMP180;15488;48.114;11.532;2023-03-04T13:33:46;95501.00;;;23.10
15680;BMP180;15488;48.114;11.532;2023-03-04T13:39:31;95493.00;;;23.60
15680;BMP180;15488;48.114;11.532;2023-03-04T13:42:00;95496.00;;;23.90
15680;BMP180;15488;48.114;11.532;2023-03-04T13:48:19;95494.00;;;24.60
15680;BMP180;15488;48.114;11.532;2023-03-04T13:50:50;95487.00;;;24.90
15680;BMP180;15488;48.114;11.532;2023-03-04T13:53:32;95487.00;;;25.20
15680;BMP180;15488;48.114;11.532;2023-03-04T13:56:26;95485.00;;;25.50
15680;BMP180;15488;48.114;11.532;2023-03-04T14:02:11;95488.00;;;26.10
15680;BMP180;15488;48.114;11.532;2023-03-04T14:04:44;95486.00;;;26.30
15680;BMP180;15488;48.114;11.532;2023-03-04T14:07:20;95486.00;;;26.50
15680;BMP180;15488;48.114;11.532;2023-03-04T14:09:56;95495.00;;;26.80
15680;BMP180;15488;48.114;11.532;2023-03-04T14:12:26;95490.00;;;27.00
15680;BMP180;15488;48.114;11.532;2023-03-04T14:14:56;95486.00;;;27.20
15680;BMP180;15488;48.114;11.532;2023-03-04T14:17:27;95483.00;;;27.30
15680;BMP180;15488;48.114;11.532;2023-03-04T14:20:00;95479.00;;;27.50
15680;BMP180;15488;48.114;11.532;2023-03-04T14:22:30;95485.00;;;27.60
15680;BMP180;15488;48.114;11.532;2023-03-04T14:25:00;95478.00;;;27.70
15680;BMP180;15488;48.114;11.532;2023-03-04T14:27:29;95479.00;;;27.90
15680;BMP180;15488;48.114;11.532;2023-03-04T14:29:59;95482.00;;;27.90
15680;BMP180;15488;48.114;11.532;2023-03-04T14:32:29;95475.00;;;28.00
15680;BMP180;15488;48.114;11.532;2023-03-04T14:35:00;95481.00;;;28.10
15680;BMP180;15488;48.114;11.532;2023-03-04T14:37:34;95477.00;;;28.20
15680;BMP180;15488;48.114;11.532;2023-03-04T14:40:05;95479.00;;;28.20